createdAt,value
2022-10-15T00:00:52.231Z,1.00
2022-10-15T00:03:19.182Z,1.00
2022-10-15T00:05:46.200Z,1.00
2022-10-15T00:08:13.192Z,1.00
2022-10-15T00:10:40.002Z,1.00
2022-10-15T00:13:06.869Z,1.00
2022-10-15T00:15:36.391Z,1.00
2022-10-15T00:18:03.215Z,1.00
2022-10-15T00:20:30.244Z,1.00
2022-10-15T00:22:57.272Z,1.00
2022-10-15T00:25:23.943Z,1.00
2022-10-15T00:27:50.669Z,1.00
2022-10-15T00:30:17.530Z,1.00
2022-10-15T00:32:44.268Z,1.00
2022-10-15T00:35:10.985Z,1.00
2022-10-15T00:37:37.814Z,1.00
2022-10-15T00:40:05.203Z,1.00
2022-10-15T00:42:31.916Z,1.00
2022-10-15T00:44:59.687Z,1.00
2022-10-15T00:47:41.372Z,1.00
2022-10-15T00:50:21.198Z,1.00
2022-10-15T00:53:03.747Z,1.00
2022-10-15T00:55:38.597Z,1.00
2022-10-15T00:58:07.607Z,1.00
2022-10-15T01:00:34.459Z,1.00
2022-10-15T01:03:01.360Z,1.30
2022-10-15T01:05:28.741Z,5.10
2022-10-15T01:07:55.643Z,1.00
2022-10-15T01:10:28.693Z,1.00
2022-10-15T01:13:08.307Z,3.50
2022-10-15T01:16:21.661Z,1.00
2022-10-15T01:19:00.477Z,1.00
2022-10-15T01:21:42.664Z,20.40
2022-10-15T01:24:25.595Z,16.20
2022-10-15T01:26:55.413Z,53.80
2022-10-15T01:29:28.211Z,45.20
2022-10-15T01:32:04.185Z,49.30
2022-10-15T01:34:40.806Z,8.60
2022-10-15T01:37:11.851Z,1.00
2022-10-15T01:39:46.147Z,1.00
2022-10-15T01:42:13.078Z,1.00
2022-10-15T01:44:43.697Z,1.00
2022-10-15T01:47:20.125Z,39.50
2022-10-15T01:49:47.890Z,16.20
2022-10-15T01:52:27.667Z,65.80
2022-10-15T01:54:54.486Z,33.60
2022-10-15T01:57:22.721Z,1.00
2022-10-15T01:59:49.942Z,1.00
2022-10-15T02:02:16.754Z,1.00
2022-10-15T02:04:43.527Z,1.00
2022-10-15T02:07:34.656Z,1.00
2022-10-15T02:10:09.179Z,1.00
2022-10-15T02:12:44.594Z,1.00
2022-10-15T02:15:11.474Z,1.00
2022-10-15T02:17:46.240Z,1.00
2022-10-15T02:20:21.234Z,1.00
2022-10-15T02:22:51.612Z,1.00
2022-10-15T02:25:21.444Z,1.00
2022-10-15T02:27:49.759Z,1.00
2022-10-15T02:30:17.325Z,1.00
2022-10-15T02:32:46.263Z,1.00
2022-10-15T02:35:13.175Z,1.00
2022-10-15T02:37:44.547Z,1.00
2022-10-15T02:40:12.016Z,1.00
2022-10-15T02:42:38.781Z,1.00
2022-10-15T02:45:06.069Z,1.00
2022-10-15T02:47:32.979Z,1.00
2022-10-15T02:49:59.785Z,1.00
2022-10-15T02:52:26.784Z,1.00
2022-10-15T02:54:53.619Z,1.00
2022-10-15T02:57:20.393Z,1.00
2022-10-15T02:59:47.194Z,1.00
2022-10-15T03:02:16.788Z,1.00
2022-10-15T03:04:46.009Z,2.40
2022-10-15T03:07:13.010Z,1.00
2022-10-15T03:09:39.977Z,1.00
2022-10-15T03:12:06.904Z,1.00
2022-10-15T03:14:33.655Z,1.00
2022-10-15T03:17:00.398Z,3.10
2022-10-15T03:19:27.178Z,1.00
2022-10-15T03:21:53.909Z,99.90
2022-10-15T03:24:20.671Z,99.90
2022-10-15T03:26:47.491Z,99.50
2022-10-15T03:29:14.532Z,1.00
2022-10-15T03:31:41.360Z,1.00
2022-10-15T03:34:08.078Z,99.90
2022-10-15T03:36:34.934Z,99.90
2022-10-15T03:39:02.204Z,99.90
2022-10-15T03:41:28.990Z,99.90
2022-10-15T03:44:01.029Z,99.90
2022-10-15T03:46:27.802Z,99.90
2022-10-15T03:48:54.625Z,99.90
2022-10-15T03:51:24.493Z,99.90
2022-10-15T03:53:54.028Z,99.90
2022-10-15T03:56:20.775Z,99.90
2022-10-15T03:58:47.497Z,99.90
2022-10-15T04:01:16.609Z,99.90
2022-10-15T04:03:44.131Z,99.90
2022-10-15T04:06:11.315Z,99.90
2022-10-15T04:08:38.290Z,99.90
2022-10-15T04:11:05.107Z,99.90
2022-10-15T04:13:32.027Z,99.90
2022-10-15T04:15:58.826Z,99.90
2022-10-15T04:18:25.698Z,99.90
2022-10-15T04:20:52.815Z,99.90
2022-10-15T04:23:19.675Z,99.90
2022-10-15T04:25:49.336Z,99.90
2022-10-15T04:28:16.265Z,99.90
2022-10-15T04:30:43.250Z,99.90
2022-10-15T04:33:10.175Z,99.90
2022-10-15T04:35:36.998Z,99.90
2022-10-15T04:38:03.886Z,99.90
2022-10-15T04:40:30.642Z,99.90
2022-10-15T04:42:57.358Z,1.00
2022-10-15T04:47:57.081Z,1.00
2022-10-15T04:50:24.168Z,1.00
2022-10-15T04:52:50.895Z,1.00
2022-10-15T04:55:17.664Z,1.00
2022-10-15T04:57:44.458Z,1.00
2022-10-15T05:00:11.986Z,1.00
2022-10-15T05:02:42.436Z,1.00
2022-10-15T05:05:09.359Z,1.00
2022-10-15T05:07:36.341Z,99.90
2022-10-15T05:10:03.112Z,1.00
2022-10-15T05:12:29.966Z,1.00
2022-10-15T05:14:56.824Z,1.00
2022-10-15T05:17:23.827Z,1.00
2022-10-15T05:19:50.770Z,99.90
2022-10-15T05:22:17.509Z,1.00
2022-10-15T05:24:44.234Z,99.90
2022-10-15T05:27:10.973Z,99.90
2022-10-15T05:29:39.797Z,99.90
2022-10-15T05:32:06.935Z,99.90
2022-10-15T05:34:33.756Z,99.90
2022-10-15T05:37:00.533Z,99.90
2022-10-15T05:39:27.253Z,99.90
2022-10-15T05:41:54.022Z,99.90
2022-10-15T05:44:20.806Z,99.90
2022-10-15T05:46:47.550Z,99.90
2022-10-15T05:49:14.357Z,99.90
2022-10-15T05:51:41.083Z,99.90
2022-10-15T05:54:07.849Z,99.90
2022-10-15T05:56:34.654Z,99.90
2022-10-15T05:59:01.898Z,99.90
2022-10-15T06:01:28.646Z,99.90
2022-10-15T06:03:55.444Z,99.90
2022-10-15T06:06:25.131Z,99.90
2022-10-15T06:08:52.658Z,99.90
2022-10-15T06:11:19.786Z,99.90
2022-10-15T06:13:47.299Z,99.90
2022-10-15T06:16:17.948Z,99.90
2022-10-15T06:18:47.911Z,99.90
2022-10-15T06:21:14.684Z,99.90
2022-10-15T06:23:41.906Z,99.90
2022-10-15T06:26:09.831Z,99.90
2022-10-15T06:28:37.299Z,99.90
2022-10-15T06:31:05.180Z,99.90
2022-10-15T06:33:32.609Z,99.90
2022-10-15T06:36:04.882Z,99.90
2022-10-15T06:38:32.371Z,99.90
2022-10-15T06:40:59.396Z,99.90
2022-10-15T06:43:28.796Z,99.90
2022-10-15T06:46:00.175Z,99.90
2022-10-15T06:48:27.211Z,1.00
2022-10-15T06:50:53.942Z,1.00
2022-10-15T06:53:22.545Z,1.00
2022-10-15T06:55:49.320Z,1.00
2022-10-15T06:58:16.411Z,1.00
2022-10-15T07:00:43.168Z,1.00
2022-10-15T07:03:09.915Z,1.00
2022-10-15T07:05:36.762Z,1.00
2022-10-15T07:08:03.665Z,1.00
2022-10-15T07:10:30.682Z,1.00
2022-10-15T07:13:00.545Z,1.00
2022-10-15T07:15:28.295Z,1.00
2022-10-15T07:18:01.769Z,1.00
2022-10-15T07:20:31.778Z,1.00
2022-10-15T07:22:59.994Z,1.00
2022-10-15T07:25:27.540Z,1.00
2022-10-15T07:27:55.336Z,1.00
2022-10-15T07:30:23.156Z,1.00
2022-10-15T07:32:50.328Z,1.00
2022-10-15T07:35:17.534Z,1.00
2022-10-15T07:37:44.282Z,1.00
2022-10-15T07:40:11.821Z,1.00
2022-10-15T07:42:38.690Z,1.00
2022-10-15T07:45:06.080Z,1.00
2022-10-15T07:47:32.918Z,1.00
2022-10-15T07:49:59.646Z,1.00
2022-10-15T07:52:26.677Z,1.00
2022-10-15T07:54:53.637Z,1.00
2022-10-15T07:57:20.313Z,1.00
2022-10-15T07:59:48.895Z,1.00
2022-10-15T08:02:19.907Z,1.00
2022-10-15T08:04:46.634Z,1.00
2022-10-15T08:07:13.396Z,1.00
2022-10-15T08:09:40.150Z,1.00
2022-10-15T08:12:07.156Z,1.00
2022-10-15T08:14:35.203Z,1.00
2022-10-15T08:17:03.564Z,1.00
2022-10-15T08:19:30.335Z,1.00
2022-10-15T08:21:57.919Z,1.00
2022-10-15T08:24:25.233Z,1.00
2022-10-15T08:26:52.308Z,1.00
2022-10-15T08:29:19.043Z,1.00
2022-10-15T08:31:45.992Z,1.00
2022-10-15T08:34:12.701Z,1.00
2022-10-15T08:36:39.577Z,1.00
2022-10-15T08:39:10.051Z,1.00
2022-10-15T08:41:39.617Z,1.00
2022-10-15T08:44:09.608Z,1.00
2022-10-15T08:46:40.233Z,1.00
2022-10-15T08:49:07.656Z,1.00
2022-10-15T08:51:39.997Z,1.00
2022-10-15T08:54:11.376Z,1.00
2022-10-15T08:56:39.852Z,1.00
2022-10-15T08:59:31.892Z,1.00
2022-10-15T09:02:20.646Z,1.00
2022-10-15T09:04:54.488Z,1.00
2022-10-15T09:07:29.923Z,1.00
2022-10-15T09:10:06.320Z,1.00
2022-10-15T09:12:59.194Z,1.00
2022-10-15T09:15:27.834Z,1.00
2022-10-15T09:17:55.012Z,1.00
2022-10-15T09:20:42.066Z,1.00
2022-10-15T09:23:16.846Z,1.00
2022-10-15T09:25:45.775Z,1.00
2022-10-15T09:28:17.094Z,1.00
2022-10-15T09:30:50.635Z,1.00
2022-10-15T09:33:47.111Z,1.00
2022-10-15T09:36:26.308Z,1.00
2022-10-15T09:39:08.326Z,1.00
2022-10-15T09:42:06.651Z,1.00
2022-10-15T09:44:38.188Z,1.00
2022-10-15T09:47:16.779Z,1.00
2022-10-15T09:49:43.565Z,1.00
2022-10-15T09:52:16.341Z,1.00
2022-10-15T09:54:55.890Z,1.00
2022-10-15T09:57:23.825Z,1.00
2022-10-15T10:00:01.983Z,1.00
2022-10-15T10:02:30.192Z,1.00
2022-10-15T10:04:57.449Z,1.00
2022-10-15T10:07:29.514Z,1.00
2022-10-15T10:09:58.557Z,1.00
2022-10-15T10:12:28.652Z,1.00
2022-10-15T10:15:26.857Z,1.00
2022-10-15T10:17:54.948Z,1.00
2022-10-15T10:20:24.081Z,1.00
2022-10-15T10:22:54.864Z,1.00
2022-10-15T10:25:34.405Z,1.00
2022-10-15T10:28:11.670Z,1.00
2022-10-15T10:30:47.837Z,1.00
2022-10-15T10:33:15.672Z,1.00
2022-10-15T10:35:48.096Z,1.00
2022-10-15T10:38:23.412Z,1.00
2022-10-15T10:40:55.945Z,1.00
2022-10-15T10:43:29.572Z,1.00
2022-10-15T10:46:02.301Z,1.00
2022-10-15T10:48:37.654Z,1.00
2022-10-15T10:51:16.744Z,1.00
2022-10-15T10:54:00.732Z,1.00
2022-10-15T10:56:38.462Z,1.00
2022-10-15T10:59:17.977Z,1.00
2022-10-15T11:01:45.158Z,1.00
2022-10-15T11:04:23.842Z,99.90
2022-10-15T11:07:22.054Z,99.90
2022-10-15T11:10:08.612Z,99.90
2022-10-15T11:13:03.937Z,99.90
2022-10-15T11:15:48.547Z,99.90
2022-10-15T11:18:29.883Z,27.50
2022-10-15T11:21:21.851Z,1.00
2022-10-15T11:24:07.516Z,1.00
2022-10-15T11:27:06.545Z,39.00
2022-10-15T11:30:15.965Z,86.90
2022-10-15T11:33:16.652Z,99.90
2022-10-15T11:35:53.341Z,1.00
2022-10-15T11:38:42.279Z,1.00
2022-10-15T11:41:18.171Z,1.00
2022-10-15T11:44:35.509Z,99.90
2022-10-15T11:47:08.190Z,1.00
2022-10-15T11:49:38.189Z,1.00
2022-10-15T11:52:28.489Z,99.90
2022-10-15T11:55:10.468Z,99.90
2022-10-15T11:57:39.952Z,68.60
2022-10-15T12:00:23.212Z,99.90
2022-10-15T12:02:51.134Z,99.90
2022-10-15T12:05:21.655Z,99.90
2022-10-15T12:07:51.573Z,1.00
2022-10-15T12:10:37.139Z,99.90
2022-10-15T12:13:26.282Z,99.90
2022-10-15T12:15:59.056Z,1.00
2022-10-15T12:18:33.925Z,99.90
2022-10-15T12:21:00.712Z,30.40
2022-10-15T12:23:36.598Z,1.00
2022-10-15T12:26:29.127Z,99.90
2022-10-15T12:28:59.568Z,99.90
2022-10-15T12:31:49.630Z,99.90
2022-10-15T12:34:30.275Z,99.90
2022-10-15T12:37:06.796Z,99.90
2022-10-15T12:39:51.677Z,1.00
2022-10-15T12:42:32.140Z,1.00
2022-10-15T12:45:02.937Z,6.80
2022-10-15T12:47:49.624Z,99.90
2022-10-15T12:50:19.406Z,1.00
2022-10-15T12:53:05.632Z,1.00
2022-10-15T12:55:43.810Z,1.00
2022-10-15T12:58:37.268Z,99.90
2022-10-15T13:01:20.594Z,1.00
2022-10-15T13:03:58.536Z,99.90
2022-10-15T13:06:32.530Z,99.90
2022-10-15T13:09:11.735Z,1.00
2022-10-15T13:11:59.147Z,99.90
2022-10-15T13:14:32.059Z,99.90
2022-10-15T13:17:03.959Z,99.90
2022-10-15T13:19:39.601Z,29.20
2022-10-15T13:22:19.522Z,99.90
2022-10-15T13:24:46.788Z,1.00
2022-10-15T13:27:23.755Z,99.90
2022-10-15T13:30:02.091Z,99.90
2022-10-15T13:32:31.360Z,99.90
2022-10-15T13:35:01.689Z,1.00
2022-10-15T13:37:34.801Z,99.90
2022-10-15T13:40:06.658Z,1.00
2022-10-15T13:42:36.821Z,99.90
2022-10-15T13:45:19.289Z,99.90
2022-10-15T13:47:52.852Z,1.00
2022-10-15T13:50:24.390Z,99.90
2022-10-15T13:52:58.195Z,99.90
2022-10-15T13:55:30.475Z,99.90
2022-10-15T13:58:04.166Z,1.00
2022-10-15T14:00:36.232Z,99.90
2022-10-15T14:03:15.351Z,99.90
2022-10-15T14:05:46.712Z,1.00
2022-10-15T14:08:28.498Z,99.90
2022-10-15T14:11:01.707Z,1.00
2022-10-15T14:13:28.927Z,99.90
2022-10-15T14:16:19.455Z,99.90
2022-10-15T14:18:49.443Z,1.00
2022-10-15T14:21:22.026Z,1.00
2022-10-15T14:23:49.001Z,57.40
2022-10-15T14:26:17.493Z,1.00
2022-10-15T14:28:50.922Z,1.00
2022-10-15T14:31:38.874Z,1.00
2022-10-15T14:34:24.745Z,1.00
2022-10-15T14:36:51.971Z,99.90
2022-10-15T14:39:39.181Z,99.90
2022-10-15T14:42:23.067Z,96.90
2022-10-15T14:44:52.991Z,99.90
2022-10-15T14:47:25.091Z,99.90
2022-10-15T14:49:55.701Z,1.00
2022-10-15T14:52:23.178Z,71.50
2022-10-15T14:55:07.172Z,1.00
2022-10-15T14:57:40.269Z,1.00
2022-10-15T15:00:21.607Z,1.00
2022-10-15T15:02:48.676Z,99.90
2022-10-15T15:05:26.985Z,99.90
2022-10-15T15:07:54.581Z,1.00
2022-10-15T15:10:21.424Z,1.00
2022-10-15T15:12:51.803Z,1.00
2022-10-15T15:15:21.572Z,55.70
2022-10-15T15:17:49.257Z,99.90
2022-10-15T15:20:20.107Z,99.90
2022-10-15T15:22:50.254Z,1.00
2022-10-15T15:25:18.530Z,1.00
2022-10-15T15:27:45.418Z,99.90
2022-10-15T15:30:20.645Z,1.00
2022-10-15T15:32:48.230Z,1.00
2022-10-15T15:35:34.502Z,99.90
2022-10-15T15:38:01.241Z,1.00
2022-10-15T15:40:28.089Z,66.50
2022-10-15T15:42:56.567Z,1.00
2022-10-15T15:45:25.618Z,1.00
2022-10-15T15:47:52.672Z,99.90
2022-10-15T15:50:22.635Z,99.90
2022-10-15T15:52:49.385Z,99.90
2022-10-15T15:55:18.380Z,99.90
2022-10-15T15:57:45.419Z,99.90
2022-10-15T16:00:13.522Z,99.90
2022-10-15T16:02:40.392Z,1.00
2022-10-15T16:05:08.525Z,1.00
2022-10-15T16:07:35.678Z,1.00
2022-10-15T16:10:06.041Z,1.00
2022-10-15T16:12:34.227Z,1.00
2022-10-15T16:15:01.434Z,1.00
2022-10-15T16:17:28.480Z,1.00
2022-10-15T16:19:55.278Z,1.00
2022-10-15T16:22:21.993Z,1.00
2022-10-15T16:24:48.744Z,99.90
2022-10-15T16:27:15.489Z,1.00
2022-10-15T16:29:42.311Z,25.80
2022-10-15T16:32:13.268Z,5.20
2022-10-15T16:34:40.111Z,1.00
2022-10-15T16:37:06.875Z,1.00
2022-10-15T16:39:33.685Z,1.00
2022-10-15T16:42:00.814Z,99.90
2022-10-15T16:44:28.659Z,1.00
2022-10-15T16:46:55.406Z,7.30
2022-10-15T16:49:22.248Z,11.20
2022-10-15T16:51:50.541Z,99.90
2022-10-15T16:54:17.444Z,99.90
2022-10-15T16:56:50.482Z,99.90
2022-10-15T16:59:20.457Z,99.90
2022-10-15T17:01:47.757Z,99.90
2022-10-15T17:04:14.574Z,99.90
2022-10-15T17:06:41.363Z,99.90
2022-10-15T17:09:08.204Z,99.90
2022-10-15T17:11:37.388Z,99.90
2022-10-15T17:14:12.292Z,99.90
2022-10-15T17:16:41.711Z,99.90
2022-10-15T17:19:09.364Z,1.00
2022-10-15T17:21:37.328Z,99.90
2022-10-15T17:24:06.443Z,1.00
2022-10-15T17:26:39.079Z,1.00
2022-10-15T17:29:08.367Z,1.00
2022-10-15T17:31:35.736Z,1.00
2022-10-15T17:34:05.145Z,1.00
2022-10-15T17:36:36.312Z,1.00
2022-10-15T17:39:03.810Z,1.00
2022-10-15T17:41:32.357Z,4.70
2022-10-15T17:43:59.311Z,1.00
2022-10-15T17:46:28.100Z,1.00
2022-10-15T17:48:55.608Z,1.00
2022-10-15T17:51:29.242Z,1.00
2022-10-15T17:53:56.571Z,1.00
2022-10-15T17:56:26.284Z,1.00
2022-10-15T17:58:53.111Z,1.00
2022-10-15T18:01:33.852Z,1.00
2022-10-15T18:04:13.000Z,1.00
2022-10-15T18:06:43.274Z,86.20
2022-10-15T18:09:10.096Z,96.30
2022-10-15T18:11:36.946Z,1.00
2022-10-15T18:14:04.003Z,10.80
2022-10-15T18:16:32.103Z,36.80
2022-10-15T18:18:59.090Z,99.90
2022-10-15T18:21:27.455Z,99.90
2022-10-15T18:23:56.522Z,99.90
2022-10-15T18:26:24.018Z,99.90
2022-10-15T18:28:52.535Z,1.00
2022-10-15T18:31:20.348Z,1.00
2022-10-15T18:33:49.392Z,1.00
2022-10-15T18:36:19.701Z,1.00
2022-10-15T18:38:47.161Z,1.00
2022-10-15T18:41:22.885Z,1.00
2022-10-15T18:43:58.152Z,1.00
2022-10-15T18:46:25.486Z,1.00
2022-10-15T18:48:52.551Z,99.90
2022-10-15T18:51:19.809Z,1.00
2022-10-15T18:53:46.694Z,1.00
2022-10-15T18:56:13.962Z,1.00
2022-10-15T18:58:44.668Z,1.00
2022-10-15T19:01:24.885Z,1.00
2022-10-15T19:03:52.818Z,1.00
2022-10-15T19:06:25.366Z,1.00
2022-10-15T19:08:52.487Z,1.00
2022-10-15T19:11:19.541Z,13.90
2022-10-15T19:13:46.287Z,1.00
2022-10-15T19:16:13.151Z,1.00
2022-10-15T19:18:39.973Z,1.00
2022-10-15T19:21:07.219Z,1.00
2022-10-15T19:23:34.623Z,1.00
2022-10-15T19:26:01.548Z,30.00
2022-10-15T19:28:29.175Z,33.10
2022-10-15T19:31:04.287Z,99.90
2022-10-15T19:33:31.937Z,99.90
2022-10-15T19:35:59.206Z,99.90
2022-10-15T19:38:26.851Z,99.90
2022-10-15T19:40:54.341Z,1.00
2022-10-15T19:43:22.393Z,1.00
2022-10-15T19:45:49.576Z,1.00
2022-10-15T19:48:18.324Z,1.00
2022-10-15T19:50:47.231Z,1.00
2022-10-15T19:53:16.806Z,1.00
2022-10-15T19:55:44.670Z,1.00
2022-10-15T19:58:11.726Z,1.00
2022-10-15T20:00:38.502Z,1.00
2022-10-15T20:03:05.472Z,1.00
2022-10-15T20:05:32.601Z,1.00
2022-10-15T20:07:59.361Z,1.00
2022-10-15T20:10:26.603Z,23.60
2022-10-15T20:12:53.875Z,99.90
2022-10-15T20:15:20.876Z,99.90
2022-10-15T20:17:48.056Z,99.90
2022-10-15T20:20:15.186Z,99.90
2022-10-15T20:22:42.135Z,99.90
2022-10-15T20:25:09.130Z,1.00
2022-10-15T20:27:35.897Z,1.00
2022-10-15T20:30:03.546Z,1.00
2022-10-15T20:32:34.731Z,1.00
2022-10-15T20:35:04.545Z,1.00
2022-10-15T20:37:31.362Z,1.00
2022-10-15T20:39:59.968Z,1.00
2022-10-15T20:42:27.813Z,1.00
2022-10-15T20:44:54.929Z,91.20
2022-10-15T20:47:23.405Z,12.50
2022-10-15T20:49:52.637Z,88.60
2022-10-15T20:52:20.887Z,99.90
2022-10-15T20:54:47.832Z,99.90
2022-10-15T20:57:14.528Z,99.90
2022-10-15T20:59:41.270Z,99.90
2022-10-15T21:02:08.042Z,99.90
2022-10-15T21:04:34.856Z,99.90
2022-10-15T21:07:01.637Z,99.90
2022-10-15T21:09:28.489Z,99.90
2022-10-15T21:11:55.256Z,99.90
2022-10-15T21:14:22.242Z,99.90
2022-10-15T21:16:49.017Z,99.90
2022-10-15T21:19:15.783Z,99.90
2022-10-15T21:21:42.774Z,1.00
2022-10-15T21:24:09.524Z,1.00
2022-10-15T21:26:36.349Z,1.00
2022-10-15T21:29:03.208Z,1.00
2022-10-15T21:31:30.001Z,1.00
2022-10-15T21:33:57.292Z,1.00
2022-10-15T21:36:28.066Z,1.00
2022-10-15T21:38:59.869Z,1.00
2022-10-15T21:41:29.129Z,1.00
2022-10-15T21:43:56.550Z,1.00
2022-10-15T21:46:23.814Z,1.00
2022-10-15T21:48:54.237Z,1.00
2022-10-15T21:51:26.837Z,1.00
2022-10-15T21:53:56.741Z,1.00
2022-10-15T21:56:23.929Z,6.70
2022-10-15T21:58:50.973Z,1.00
2022-10-15T22:01:27.414Z,1.00
2022-10-15T22:03:59.011Z,4.80
2022-10-15T22:06:25.775Z,54.80
2022-10-15T22:08:52.552Z,83.20
2022-10-15T22:13:59.131Z,99.90
2022-10-15T22:16:27.642Z,99.90
2022-10-15T22:18:55.759Z,99.90
2022-10-15T22:21:28.344Z,99.90
2022-10-15T22:24:05.452Z,99.90
2022-10-15T22:26:35.440Z,99.90
2022-10-15T22:29:04.321Z,99.90
2022-10-15T22:31:31.933Z,1.00
2022-10-15T22:33:58.989Z,1.00
2022-10-15T22:36:28.100Z,1.00
2022-10-15T22:38:57.028Z,1.00
2022-10-15T22:41:25.340Z,1.00
2022-10-15T22:43:52.312Z,1.00
2022-10-15T22:46:19.155Z,1.00
2022-10-15T22:48:46.396Z,99.90
2022-10-15T22:51:13.948Z,17.90
2022-10-15T22:53:41.229Z,99.90
2022-10-15T22:56:12.940Z,99.90
2022-10-15T22:58:40.000Z,99.90
2022-10-15T23:01:24.758Z,99.90
2022-10-15T23:03:54.285Z,57.00
2022-10-15T23:06:21.955Z,99.90
2022-10-15T23:08:49.495Z,99.90
2022-10-15T23:11:22.097Z,99.90
2022-10-15T23:13:53.507Z,99.90
2022-10-15T23:16:22.372Z,99.90
2022-10-15T23:18:54.649Z,99.90
2022-10-15T23:21:45.806Z,99.90
2022-10-15T23:24:13.936Z,99.90
2022-10-15T23:26:40.848Z,99.90
2022-10-15T23:29:09.093Z,99.90
2022-10-15T23:31:36.356Z,99.90
2022-10-15T23:34:04.407Z,99.90
2022-10-15T23:36:31.814Z,99.90
2022-10-15T23:39:00.719Z,99.90
2022-10-15T23:41:28.857Z,99.90
2022-10-15T23:43:55.889Z,99.90
2022-10-15T23:46:22.899Z,99.90
2022-10-15T23:48:50.234Z,99.90
2022-10-15T23:51:23.383Z,1.00
2022-10-15T23:53:50.947Z,1.00
2022-10-15T23:56:18.118Z,1.00
2022-10-15T23:58:52.717Z,1.00
